Latest Weather Observations for Mandurah

IDW60901

Issued at 10:41 pm WST Tuesday 25 April 2017 (issued every 10 minutes, with the page automatically refreshed every 10 minutes)

About weather observations | Map of Perth area stations | Latest observations for Perth area | Other Formats
Station Details ID: 009977 Name: MANDURAH Lat: -32.52 Lon: 115.71 Height: 3.0 m
Data from the previous 72 hours. | See also: Recent months at Mandurah
Date/Time
WST
Temp
°C
App
Temp
°C
Dew
Point
°C
Rel
Hum
%
Delta-T
°C
Wind Press
QNH
hPa
Press
MSL
hPa
Rain since
9am
mm
Dir  Spd
km/h
Gust
km/h
Spd
kts
Gust
kts
25/10:30pm 17.2 16.5 14.3 83 1.6 SSE 11 17 6 9 1027.1 1027.1 0.0
25/10:00pm 17.1 16.7 14.0 82 1.8 SSE 9 15 5 8 1027.0 1027.0 0.0
25/09:30pm 17.2 16.3 13.7 80 2.0 SE 11 13 6 7 1026.9 1026.9 0.0
25/09:00pm 17.3 16.8 13.8 80 2.0 SE 9 13 5 7 1026.8 1026.8 0.0
25/08:30pm 17.9 17.5 14.2 79 2.1 SSE 9 13 5 7 1026.6 1026.6 0.0
25/08:00pm 18.3 17.9 14.2 77 2.3 SSE 9 13 5 7 1026.4 1026.4 0.0
25/07:30pm 18.6 17.4 13.9 74 2.7 S 13 22 7 12 1026.1 1026.1 0.0
25/07:00pm 18.8 17.9 13.6 72 2.9 S 11 17 6 9 1025.9 1025.9 0.0
25/06:30pm 19.0 17.5 13.2 69 3.3 S 13 20 7 11 1025.5 1025.5 0.0
25/06:00pm 19.2 16.8 12.7 66 3.6 S 17 28 9 15 1025.1 1025.1 0.0
25/05:30pm 19.7 17.5 12.0 61 4.3 S 15 28 8 15 1024.8 1024.8 0.0
25/05:00pm 20.1 17.5 12.1 60 4.4 SSW 17 30 9 16 1024.7 1024.7 0.0
25/04:30pm 20.8 18.0 11.4 55 5.2 SSW 17 24 9 13 1024.6 1024.6 0.0
25/04:00pm 21.0 18.5 11.1 53 5.4 SSW 15 24 8 13 1024.4 1024.4 0.0
25/03:30pm 22.6 20.5 8.3 40 7.5 S 9 17 5 9 1024.2 1024.2 0.0
25/03:00pm 22.3 19.2 7.3 38 7.7 S 13 20 7 11 1024.2 1024.2 0.0
25/02:30pm 22.5 19.5 7.5 38 7.8 S 13 22 7 12 1024.2 1024.2 0.0
25/02:00pm 22.1 19.3 7.1 38 7.7 SSE 11 19 6 10 1024.2 1024.2 0.0
25/01:30pm 21.9 18.9 7.7 40 7.4 SSE 13 20 7 11 1024.5 1024.5 0.0
25/01:00pm 21.6 18.0 6.7 38 7.5 SSE 15 24 8 13 1024.8 1024.8 0.0
25/12:30pm 21.2 18.0 6.7 39 7.4 SE 13 20 7 11 1025.3 1025.3 0.0
25/12:00pm 20.2 16.5 6.5 41 6.8 SSE 15 22 8 12 1025.7 1025.7 0.0
25/11:30am 20.2 16.9 6.5 41 6.9 SE 13 19 7 10 1026.1 1026.1 0.0
25/11:00am 18.9 15.5 6.1 43 6.3 SSE 13 22 7 12 1026.6 1026.6 0.0
25/10:30am 18.0 14.5 7.4 50 5.3 SSE 15 20 8 11 1027.0 1027.0 0.0
25/10:00am 17.5 15.6 9.2 58 4.3 SE 9 17 5 9 1027.2 1027.2 0.0
25/09:30am 16.2 13.6 9.2 63 3.6 SE 13 17 7 9 1027.4 1027.4 0.0
25/09:00am 15.4 13.2 9.5 68 3.0 SE 11 15 6 8 1027.4 1027.4 0.0
25/08:30am 14.1 11.5 9.3 73 2.4 SE 13 17 7 9 1027.2 1027.2 0.0
25/08:00am 13.9 11.5 9.9 77 2.1 SSE 13 17 7 9 1027.0 1027.0 0.0
25/07:30am 13.5 11.2 10.3 81 1.7 SE 13 19 7 10 1026.5 1026.5 0.0
25/07:00am 13.3 11.0 10.3 82 1.5 SSE 13 19 7 10 1026.2 1026.2 0.0
25/06:30am 13.4 11.1 10.4 82 1.6 SSE 13 19 7 10 1025.8 1025.8 0.0
25/06:00am 13.4 11.5 10.4 82 1.5 SSE 11 19 6 10 1025.6 1025.6 0.0
25/05:30am 13.6 11.3 10.6 82 1.6 SSE 13 20 7 11 1025.3 1025.3 0.0
25/05:00am 13.7 11.9 10.7 82 1.6 SSE 11 17 6 9 1025.1 1025.1 0.0
25/04:30am 13.8 11.6 10.8 82 1.6 SSE 13 19 7 10 1024.8 1024.8 0.0
25/04:00am 13.9 11.2 10.5 80 1.8 SSE 15 20 8 11 1024.5 1024.5 0.0
25/03:30am 14.3 11.7 10.7 79 1.9 SSE 15 22 8 12 1024.5 1024.5 0.0
25/03:00am 14.6 12.0 10.8 78 2.0 SSE 15 22 8 12 1024.6 1024.6 0.0
25/02:30am 14.9 12.4 11.1 78 2.0 SSE 15 22 8 12 1024.4 1024.4 0.0
25/02:00am 15.1 12.6 10.9 76 2.2 SSE 15 24 8 13 1024.4 1024.4 0.0
25/01:30am 15.5 13.0 10.9 74 2.4 SSE 15 26 8 14 1024.2 1024.2 0.0
25/01:00am 15.8 13.3 11.0 73 2.5 S 15 26 8 14 1024.0 1024.0 0.0
25/12:30am 16.0 13.9 11.2 73 2.6 S 13 20 7 11 1023.7 1023.7 0.0
25/12:00am 16.3 13.8 11.2 72 2.7 SSE 15 20 8 11 1023.5 1023.5 0.0
 
Date/Time
WST
Temp
°C
App
Temp
°C
Dew
Point
°C
Rel
Hum
%
Delta-T
°C
Wind Press
QNH
hPa
Press
MSL
hPa
Rain since
9am
mm
Dir  Spd
km/h
Gust
km/h
Spd
kts
Gust
kts
24/11:30pm 16.6 13.8 11.5 72 2.8 S 17 24 9 13 1023.4 1023.4 0.0
24/11:00pm 16.7 14.7 11.4 71 2.9 S 13 22 7 12 1023.4 1023.4 0.0
24/10:30pm 17.1 14.4 11.6 70 3.0 SSE 17 24 9 13 1023.4 1023.4 0.0
24/10:00pm 17.6 14.5 11.6 68 3.3 SSE 19 28 10 15 1023.4 1023.4 0.0
24/09:30pm 18.1 15.1 11.9 67 3.4 S 19 30 10 16 1023.1 1023.1 0.0
24/09:00pm 18.5 14.9 12.0 66 3.6 S 22 35 12 19 1022.7 1022.7 0.0
24/08:30pm 19.3 16.6 12.8 66 3.7 S 19 30 10 16 1022.2 1022.2 0.0
24/08:00pm 19.7 17.1 13.2 66 3.7 S 19 30 10 16 1021.9 1021.9 0.0
24/07:30pm 20.1 17.9 13.3 65 3.9 S 17 32 9 17 1021.6 1021.6 0.0
24/07:00pm 20.2 19.0 13.9 67 3.6 S 13 22 7 12 1021.3 1021.3 0.0
24/06:30pm 20.3 19.1 14.0 67 3.6 SSW 13 20 7 11 1020.9 1020.9 0.0
24/06:00pm 20.6 18.6 13.8 65 3.9 SSW 17 26 9 14 1020.6 1020.6 0.0
24/05:30pm 21.1 19.5 13.8 63 4.2 SSW 15 24 8 13 1020.5 1020.5 0.0
24/05:00pm 21.3 19.6 13.5 61 4.5 SSW 15 22 8 12 1020.2 1020.2 0.0
24/04:30pm 21.7 19.8 13.1 58 4.9 SSW 15 22 8 12 1020.0 1020.0 0.0
24/04:00pm 22.4 21.0 12.1 52 5.8 SW 11 17 6 9 1019.9 1019.9 0.0
24/03:30pm 22.7 21.1 12.9 54 5.6 SW 13 20 7 11 1019.8 1019.8 0.0
24/03:00pm 22.5 20.4 12.4 52 5.7 WSW 15 20 8 11 1019.8 1019.8 0.0
24/02:30pm 22.6 20.4 13.4 56 5.3 WSW 17 24 9 13 1019.9 1019.9 0.0
24/02:00pm 23.3 21.6 13.5 54 5.7 WSW 15 20 8 11 1020.0 1020.0 0.0
24/01:30pm 22.8 21.0 12.1 51 6.1 WSW 13 19 7 10 1020.2 1020.2 0.0
24/01:00pm 24.1 22.6 10.4 42 7.5 WSW 9 13 5 7 1020.6 1020.6 0.0
24/12:30pm 23.7 22.6 12.0 48 6.6 WSW 9 13 5 7 1021.1 1021.1 0.0
24/12:00pm 22.9 22.4 11.9 50 6.2 SE 6 7 3 4 1021.6 1021.6 0.0
24/11:30am 21.6 21.1 12.2 55 5.3 S 6 9 3 5 1022.1 1022.1 0.0
24/11:00am 20.7 20.1 12.4 59 4.7 S 7 9 4 5 1022.3 1022.3 0.0
24/10:30am 20.1 19.8 12.6 62 4.2 SSE 6 9 3 5 1022.5 1022.5 0.0
24/10:00am 19.5 19.1 12.3 63 4.0 ESE 6 11 3 6 1022.7 1022.7 0.0
24/09:30am 18.7 18.1 12.2 66 3.6 SE 7 13 4 7 1022.8 1022.8 0.0
24/09:00am 17.9 17.4 12.8 72 2.8 E 7 11 4 6 1022.8 1022.8 0.0
24/08:30am 16.2 15.2 12.4 78 2.1 SE 9 13 5 7 1022.6 1022.6 0.0
24/08:00am 15.4 14.8 12.2 81 1.7 ESE 7 11 4 6 1022.4 1022.4 0.0
24/07:30am 15.0 13.9 12.0 82 1.6 SE 9 11 5 6 1022.1 1022.1 0.0
24/07:00am 14.8 14.1 11.9 83 1.6 ESE 7 11 4 6 1021.9 1021.9 0.0
24/06:30am 14.7 13.8 11.5 81 1.7 ESE 7 9 4 5 1021.6 1021.6 0.0
24/06:00am 15.0 14.3 11.4 79 1.9 ESE 6 7 3 4 1021.5 1021.5 0.0
24/05:30am 15.5 14.9 11.7 78 2.1 ESE 6 9 3 5 1021.3 1021.3 0.0
24/05:00am 16.0 15.2 11.6 75 2.4 SE 7 11 4 6 1021.1 1021.1 0.0
24/04:30am 16.2 15.5 12.0 76 2.3 SE 7 11 4 6 1021.0 1021.0 0.0
24/04:00am 16.8 15.7 11.9 73 2.7 SE 9 13 5 7 1021.1 1021.1 0.0
24/03:30am 17.1 16.0 11.8 71 2.9 SE 9 13 5 7 1021.0 1021.0 0.0
24/03:00am 17.2 16.4 11.7 70 3.0 SE 7 11 4 6 1021.2 1021.2 0.0
24/02:30am 17.6 17.1 11.9 69 3.1 SE 6 9 3 5 1021.1 1021.1 0.0
24/02:00am 17.7 17.1 11.7 68 3.3 SE 6 9 3 5 1021.0 1021.0 0.0
24/01:30am 18.2 17.3 11.5 65 3.7 SE 7 9 4 5 1020.9 1020.9 0.0
24/01:00am 18.6 17.9 11.9 65 3.7 SSE 7 11 4 6 1020.8 1020.8 0.0
24/12:30am 18.7 17.9 11.8 64 3.8 ESE 7 17 4 9 1020.8 1020.8 0.0
24/12:00am 19.1 17.9 11.7 62 4.1 ESE 9 17 5 9 1020.7 1020.7 0.0
 
Date/Time
WST
Temp
°C
App
Temp
°C
Dew
Point
°C
Rel
Hum
%
Delta-T
°C
Wind Press
QNH
hPa
Press
MSL
hPa
Rain since
9am
mm
Dir  Spd
km/h
Gust
km/h
Spd
kts
Gust
kts
23/11:30pm 19.0 18.2 11.6 62 4.1 ESE 7 15 4 8 1020.8 1020.8 0.0
23/11:00pm 19.4 18.5 11.4 60 4.4 ESE 7 13 4 7 1021.1 1021.1 0.0
23/10:30pm 19.7 18.9 11.2 58 4.7 ESE 6 9 3 5 1021.1 1021.1 0.0
23/10:00pm 20.1 19.1 11.1 56 4.9 ESE 7 13 4 7 1021.3 1021.3 0.0
23/09:30pm 21.0 19.4 11.6 55 5.2 SE 11 17 6 9 1021.2 1021.2 0.0
23/09:00pm 21.5 19.5 11.5 53 5.5 SE 13 20 7 11 1021.0 1021.0 0.0
23/08:30pm 22.0 20.0 11.4 51 5.9 SE 13 20 7 11 1020.7 1020.7 0.0
23/08:00pm 22.3 20.7 11.4 50 6.1 ESE 11 19 6 10 1020.4 1020.4 0.0
23/07:30pm 22.4 21.3 11.8 51 6.0 ESE 9 13 5 7 1020.0 1020.0 0.0
23/07:00pm 23.0 21.4 11.7 49 6.3 SE 11 15 6 8 1019.7 1019.7 0.0
23/06:30pm 23.5 21.5 11.5 47 6.7 SE 13 19 7 10 1019.2 1019.2 0.0
23/06:00pm 24.0 22.1 11.7 46 6.9 ESE 13 20 7 11 1018.9 1018.9 0.0
23/05:30pm 24.8 22.9 11.7 44 7.4 ESE 13 26 7 14 1018.6 1018.6 0.0
23/05:00pm 25.4 22.8 11.9 43 7.7 ESE 17 30 9 16 1018.2 1018.2 0.0
23/04:30pm 25.8 23.1 11.6 41 8.1 SE 17 24 9 13 1018.0 1018.0 0.0
23/04:00pm 26.0 23.6 12.5 43 7.8 SE 17 24 9 13 1018.1 1018.1 0.0
23/03:30pm 26.1 23.7 12.5 42 7.9 SE 17 24 9 13 1018.1 1018.1 0.0
23/03:00pm 26.3 24.4 13.1 44 7.7 SSE 15 24 8 13 1018.2 1018.2 0.0
23/02:30pm 26.3 24.4 13.1 44 7.7 SE 15 24 8 13 1018.2 1018.2 0.0
23/02:00pm 25.9 24.0 13.1 45 7.5 SSE 15 28 8 15 1018.2 1018.2 0.0
23/01:30pm 26.6 25.2 13.3 43 7.8 SE 13 24 7 13 1018.5 1018.5 0.0
23/01:00pm 25.2 24.0 12.8 46 7.2 SSE 11 20 6 11 1018.8 1018.8 0.0
23/12:30pm 25.2 23.6 12.8 46 7.2 SSE 13 24 7 13 1019.1 1019.1 0.0
23/12:00pm 26.0 24.9 13.2 45 7.5 ESE 11 19 6 10 1019.6 1019.6 0.0
23/11:30am 25.0 23.1 12.9 47 7.0 ESE 15 22 8 12 1020.0 1020.0 0.0
23/11:00am 23.6 21.3 12.9 51 6.1 SE 17 26 9 14 1020.4 1020.4 0.0
23/10:30am 23.1 21.2 13.0 53 5.8 ESE 15 24 8 13 1020.8 1020.8 0.0
23/10:00am 21.8 19.6 13.2 58 4.9 SE 17 30 9 16 1021.1 1021.1 0.0
23/09:30am 21.2 20.0 13.9 63 4.2 ESE 13 22 7 12 1021.4 1021.4 0.0
23/09:00am 20.4 18.3 13.6 65 3.9 SE 17 24 9 13 1021.7 1021.7 0.0
23/08:30am 19.4 19.2 13.6 69 3.3 SE 7 15 4 8 1021.8 1021.8 0.0
23/08:00am 18.3 18.0 13.4 73 2.8 SSE 7 11 4 6 1021.6 1021.6 0.0
23/07:30am 17.9 17.6 13.4 75 2.5 SSE 7 13 4 7 1021.3 1021.3 0.0
23/07:00am 17.6 16.5 13.1 75 2.5 SE 11 17 6 9 1021.0 1021.0 0.0
23/06:30am 17.6 16.5 13.1 75 2.5 SE 11 15 6 8 1020.9 1020.9 0.0
23/06:00am 17.6 16.8 12.9 74 2.6 SE 9 15 5 8 1020.8 1020.8 0.0
23/05:30am 17.8 16.6 12.9 73 2.7 SE 11 15 6 8 1020.6 1020.6 0.0
23/05:00am 17.9 17.1 12.8 72 2.8 SE 9 15 5 8 1020.6 1020.6 0.0
23/04:30am 18.1 17.0 13.0 72 2.9 SSE 11 17 6 9 1020.6 1020.6 0.0
23/04:00am 18.2 17.0 12.9 71 3.0 SE 11 20 6 11 1020.6 1020.6 0.0
23/03:30am 18.3 17.2 13.0 71 3.0 SE 11 15 6 8 1020.5 1020.5 0.0
23/03:00am 18.6 17.1 13.0 70 3.1 SE 13 19 7 10 1020.6 1020.6 0.0
23/02:30am 18.9 17.8 13.1 69 3.3 SSE 11 19 6 10 1020.7 1020.7 0.0
23/02:00am 18.8 17.3 13.0 69 3.3 ESE 13 19 7 10 1020.7 1020.7 0.0
23/01:30am 19.0 17.5 13.2 69 3.3 SE 13 24 7 13 1020.7 1020.7 0.0
23/01:00am 18.9 17.4 13.1 69 3.3 ESE 13 20 7 11 1020.7 1020.7 0.0
23/12:30am 19.0 17.5 13.2 69 3.3 ESE 13 22 7 12 1020.6 1020.6 0.0
23/12:00am 19.3 17.9 13.3 68 3.4 ESE 13 19 7 10 1020.5 1020.5 0.0
 
Date/Time
WST
Temp
°C
App
Temp
°C
Dew
Point
°C
Rel
Hum
%
Delta-T
°C
Wind Press
QNH
hPa
Press
MSL
hPa
Rain since
9am
mm
Dir  Spd
km/h
Gust
km/h
Spd
kts
Gust
kts
22/11:30pm 19.5 18.1 13.4 68 3.5 SE 13 22 7 12 1020.6 1020.6 0.0
22/11:00pm 19.7 18.3 13.4 67 3.6 ESE 13 22 7 12 1020.7 1020.7 0.0

Latest Capital City Observations: Canberra | Sydney | Melbourne | Brisbane | Adelaide | Perth | Hobart | Darwin

Other Formats:

Comma delimited format used in spreadsheet applications
http://www.bom.gov.au/fwo/IDW60901/IDW60901.94605.axf

JavaScript Object Notation format (JSON) in row-major order
http://www.bom.gov.au/fwo/IDW60901/IDW60901.94605.json